Time;durP1;ratioP1;P1;durP2;ratioP2;P2;SDS_P1;SDS_P2;PMS_P1;PMS_P2;Temp;Humidity;BMP_temperature;BMP_pressure;BME280_temperature;BME280_humidity;BME280_pressure;Samples;Min_cycle;Max_cycle;Signal;HPM_P1;HPM_P2
2022/04/03 00:01:19;;;;;;;6.37;3.53;;;5.60;62.90;;;;;;5073505;28;20987;-68
2022/04/03 00:03:48;;;;;;;4.57;3.40;;;5.60;63.20;;;;;;5073819;28;20455;-67
2022/04/03 00:06:14;;;;;;;4.43;4.03;;;5.60;63.50;;;;;;5073655;28;20824;-68
2022/04/03 00:08:41;;;;;;;3.97;3.17;;;5.60;63.70;;;;;;5073587;28;20491;-68
2022/04/03 00:11:09;;;;;;;3.60;3.30;;;5.60;63.80;;;;;;5073224;28;21033;-68
2022/04/03 00:13:36;;;;;;;7.87;4.23;;;5.60;63.80;;;;;;5073629;28;20519;-68
2022/04/03 00:16:04;;;;;;;4.90;3.50;;;5.50;63.80;;;;;;5073549;28;20472;-68
2022/04/03 00:18:30;;;;;;;3.60;3.30;;;5.50;63.90;;;;;;5073374;28;20452;-67
2022/04/03 00:20:59;;;;;;;3.97;3.47;;;5.50;63.90;;;;;;5073529;28;20471;-67
2022/04/03 00:23:25;;;;;;;3.43;3.13;;;5.50;64.20;;;;;;5073507;28;20775;-68
2022/04/03 00:25:52;;;;;;;5.23;3.97;;;5.50;64.40;;;;;;5073048;28;20448;-68
2022/04/03 00:28:19;;;;;;;4.43;3.43;;;5.40;64.10;;;;;;5073478;28;20488;-68
2022/04/03 00:30:46;;;;;;;3.90;3.50;;;5.40;64.00;;;;;;5073261;28;20487;-68
2022/04/03 00:33:13;;;;;;;4.23;3.73;;;5.40;64.00;;;;;;5073309;28;20432;-68
2022/04/03 00:35:40;;;;;;;3.70;3.23;;;5.40;64.30;;;;;;5073324;28;20444;-68
2022/04/03 00:38:08;;;;;;;7.10;3.53;;;5.40;64.50;;;;;;5073346;28;20441;-68
2022/04/03 00:40:35;;;;;;;3.57;3.27;;;5.40;64.50;;;;;;5073156;28;20444;-67
2022/04/03 00:43:02;;;;;;;3.57;3.27;;;5.40;64.60;;;;;;5073875;28;20820;-67
2022/04/03 00:45:29;;;;;;;4.10;3.30;;;5.40;64.60;;;;;;5073309;28;20451;-67
2022/04/03 00:47:57;;;;;;;4.60;3.50;;;5.30;64.50;;;;;;5072872;28;20472;-67
2022/04/03 00:50:24;;;;;;;4.93;3.33;;;5.30;64.40;;;;;;5072825;28;21058;-67
2022/04/03 00:52:51;;;;;;;7.87;4.30;;;5.30;64.60;;;;;;5073374;28;20448;-67
2022/04/03 00:55:19;;;;;;;3.47;3.17;;;5.30;65.00;;;;;;5073204;28;20453;-67
2022/04/03 00:57:46;;;;;;;5.37;3.67;;;5.30;65.00;;;;;;5073180;28;20436;-67
2022/04/03 01:00:14;;;;;;;5.33;3.40;;;5.40;65.30;;;;;;5072798;28;20794;-67
2022/04/03 01:02:41;;;;;;;4.40;3.77;;;5.30;65.00;;;;;;5073267;28;20471;-67
2022/04/03 01:05:08;;;;;;;5.90;3.53;;;5.30;65.00;;;;;;5073226;28;20464;-68
2022/04/03 01:07:35;;;;;;;5.03;3.60;;;5.30;65.40;;;;;;5072980;28;20483;-68
2022/04/03 01:10:03;;;;;;;6.60;3.40;;;5.30;65.60;;;;;;5072598;28;20491;-68
2022/04/03 01:12:31;;;;;;;5.23;3.43;;;5.30;65.40;;;;;;5072935;28;20879;-68
2022/04/03 01:14:57;;;;;;;4.13;3.60;;;5.20;65.30;;;;;;5073008;28;20452;-68
2022/04/03 01:17:24;;;;;;;3.93;2.70;;;5.30;65.60;;;;;;5072862;28;20862;-68
2022/04/03 01:19:51;;;;;;;5.73;3.07;;;5.20;65.60;;;;;;5072618;28;20459;-68
2022/04/03 01:22:17;;;;;;;5.67;4.10;;;5.20;65.60;;;;;;5072815;28;20469;-68
2022/04/03 01:24:45;;;;;;;5.00;3.53;;;5.20;65.50;;;;;;5073362;28;20444;-68
2022/04/03 01:27:13;;;;;;;7.13;3.43;;;5.20;65.40;;;;;;5073006;28;20449;-68
2022/04/03 01:29:40;;;;;;;4.77;4.00;;;5.20;65.30;;;;;;5072753;28;20483;-68
2022/04/03 01:32:07;;;;;;;4.17;2.63;;;5.20;65.50;;;;;;5072770;28;20469;-68
2022/04/03 01:34:34;;;;;;;5.77;3.20;;;5.20;65.50;;;;;;5072730;28;20448;-68
2022/04/03 01:37:01;;;;;;;4.60;3.33;;;5.20;66.00;;;;;;5073046;28;20456;-67
2022/04/03 01:39:29;;;;;;;4.60;3.40;;;5.10;65.20;;;;;;5076120;28;20962;-68
2022/04/03 01:41:55;;;;;;;3.60;3.30;;;5.10;65.30;;;;;;5076128;28;20487;-68
2022/04/03 01:44:23;;;;;;;3.97;3.10;;;5.10;65.20;;;;;;5076342;28;20452;-67
2022/04/03 01:46:50;;;;;;;3.57;2.73;;;5.10;65.30;;;;;;5076382;28;20514;-68
2022/04/03 01:49:17;;;;;;;5.40;3.37;;;5.10;65.20;;;;;;5076126;28;20848;-68
2022/04/03 01:51:44;;;;;;;4.27;3.33;;;5.10;65.20;;;;;;5076324;28;20473;-68
2022/04/03 01:54:10;;;;;;;4.23;3.40;;;5.10;65.00;;;;;;5076324;28;20448;-68
2022/04/03 01:56:38;;;;;;;3.20;2.87;;;5.00;64.80;;;;;;5076374;28;20452;-68
2022/04/03 01:59:05;;;;;;;4.00;2.53;;;5.00;64.80;;;;;;5075764;28;20451;-68
2022/04/03 02:01:35;;;;;;;4.00;3.10;;;5.00;64.90;;;;;;5075776;28;20464;-67
2022/04/03 02:04:03;;;;;;;5.13;2.73;;;5.00;65.00;;;;;;5075990;28;20456;-68
2022/04/03 02:06:30;;;;;;;3.63;2.90;;;5.00;65.00;;;;;;5076009;28;20855;-68
2022/04/03 02:08:57;;;;;;;3.53;3.03;;;4.90;65.00;;;;;;5075501;28;20884;-68
2022/04/03 02:11:24;;;;;;;5.57;3.43;;;4.90;65.10;;;;;;5075906;28;20479;-67
2022/04/03 02:13:51;;;;;;;4.90;3.13;;;4.90;65.30;;;;;;5075594;28;20974;-68
2022/04/03 02:16:19;;;;;;;4.03;3.40;;;4.90;65.40;;;;;;5075891;28;20487;-67
2022/04/03 02:18:47;;;;;;;5.53;2.47;;;4.90;65.90;;;;;;5075506;28;20467;-67
2022/04/03 02:21:14;;;;;;;5.20;3.20;;;4.80;66.10;;;;;;5075817;28;20472;-67
2022/04/03 02:23:40;;;;;;;2.77;2.50;;;4.80;66.10;;;;;;5075599;28;20441;-68
2022/04/03 02:26:07;;;;;;;5.10;3.00;;;4.80;66.20;;;;;;5075679;28;20440;-68
2022/04/03 02:28:34;;;;;;;3.47;2.80;;;4.80;66.10;;;;;;5075590;28;20488;-68
2022/04/03 02:31:01;;;;;;;3.60;2.97;;;4.90;66.20;;;;;;5075557;28;20460;-68
2022/04/03 02:33:27;;;;;;;3.30;2.60;;;4.80;66.00;;;;;;5075578;28;20444;-68
2022/04/03 02:35:55;;;;;;;5.43;3.53;;;4.80;66.00;;;;;;5075468;28;20480;-68
2022/04/03 02:38:23;;;;;;;5.57;3.03;;;4.80;66.00;;;;;;5075188;28;20444;-68
2022/04/03 02:40:50;;;;;;;3.60;3.20;;;4.80;66.00;;;;;;5075430;28;20578;-68
2022/04/03 02:43:17;;;;;;;3.73;3.30;;;4.80;66.10;;;;;;5075375;28;20448;-67
2022/04/03 02:45:43;;;;;;;4.07;3.00;;;4.80;66.10;;;;;;5075256;28;20440;-67
2022/04/03 02:48:10;;;;;;;4.40;2.83;;;4.80;66.10;;;;;;5075313;28;20451;-67
2022/04/03 02:50:37;;;;;;;3.43;3.03;;;4.80;66.20;;;;;;5074250;28;20844;-68
2022/04/03 02:53:06;;;;;;;4.97;3.23;;;4.70;66.00;;;;;;5075176;28;20427;-68
2022/04/03 02:55:33;;;;;;;4.93;3.90;;;4.70;66.00;;;;;;5074659;28;20939;-68
2022/04/03 02:57:59;;;;;;;2.90;2.40;;;4.70;66.10;;;;;;5074981;28;20444;-68
2022/04/03 03:00:26;;;;;;;3.97;3.00;;;4.70;66.30;;;;;;5074613;28;20940;-68
2022/04/03 03:02:53;;;;;;;3.27;2.80;;;4.70;66.30;;;;;;5074909;28;20448;-68
2022/04/03 03:05:20;;;;;;;4.17;3.43;;;4.70;66.20;;;;;;5074656;28;20458;-68
2022/04/03 03:07:48;;;;;;;5.23;3.07;;;4.70;66.30;;;;;;5074853;28;20429;-68
2022/04/03 03:10:18;;;;;;;5.80;2.87;;;4.60;66.40;;;;;;5074766;28;20488;-68
2022/04/03 03:12:46;;;;;;;3.90;2.60;;;4.60;66.40;;;;;;5074612;28;20460;-68
2022/04/03 03:15:13;;;;;;;3.93;2.33;;;4.60;66.40;;;;;;5074397;28;20971;-68
2022/04/03 03:17:40;;;;;;;4.13;2.90;;;4.60;66.40;;;;;;5074611;28;20451;-67
2022/04/03 03:20:08;;;;;;;5.57;2.77;;;4.60;67.50;;;;;;5074205;28;20456;-68
2022/04/03 03:22:35;;;;;;;5.30;2.80;;;4.60;66.90;;;;;;5074165;28;20467;-67
2022/04/03 03:25:07;;;;;;;5.90;3.23;;;4.60;67.80;;;;;;5075326;28;20927;-67
2022/04/03 03:27:35;;;;;;;3.97;2.80;;;4.50;66.80;;;;;;5074187;28;20904;-67
2022/04/03 03:30:02;;;;;;;3.20;2.57;;;4.50;67.10;;;;;;5074288;28;20480;-67
2022/04/03 03:32:29;;;;;;;3.73;2.90;;;4.50;67.20;;;;;;5074272;28;20473;-68
2022/04/03 03:34:56;;;;;;;6.17;2.97;;;4.50;67.00;;;;;;5074286;28;20451;-68
2022/04/03 03:37:23;;;;;;;4.83;3.27;;;4.50;67.10;;;;;;5074163;28;20440;-68
2022/04/03 03:39:49;;;;;;;4.53;3.13;;;4.50;67.40;;;;;;5074127;28;20448;-68
2022/04/03 03:42:16;;;;;;;4.23;3.00;;;4.50;67.60;;;;;;5074174;28;20480;-68
2022/04/03 03:44:44;;;;;;;5.10;3.00;;;4.50;67.70;;;;;;5073911;28;20451;-68
2022/04/03 03:47:11;;;;;;;5.90;3.40;;;4.50;67.80;;;;;;5074125;28;20479;-67
2022/04/03 03:49:39;;;;;;;4.20;2.83;;;4.50;67.90;;;;;;5073880;28;20476;-67
2022/04/03 03:52:06;;;;;;;3.37;2.80;;;4.50;67.70;;;;;;5074072;28;20467;-67
2022/04/03 03:54:33;;;;;;;2.70;2.50;;;4.40;67.50;;;;;;5073973;28;20451;-68
2022/04/03 03:56:59;;;;;;;3.63;2.90;;;4.40;67.50;;;;;;5074064;28;20455;-68
2022/04/03 03:59:26;;;;;;;3.97;3.37;;;4.40;67.50;;;;;;5073546;28;20907;-68
2022/04/03 04:01:54;;;;;;;3.30;2.80;;;4.30;67.10;;;;;;5072788;28;20468;-68
2022/04/03 04:04:21;;;;;;;4.13;3.20;;;4.30;67.10;;;;;;5073797;28;20510;-68
2022/04/03 04:06:48;;;;;;;2.83;2.60;;;4.30;66.80;;;;;;5073835;28;20539;-68
2022/04/03 04:09:15;;;;;;;4.93;2.90;;;4.30;66.60;;;;;;5073266;28;21003;-68
2022/04/03 04:11:42;;;;;;;3.63;2.93;;;4.30;66.50;;;;;;5073523;28;20475;-68
2022/04/03 04:14:09;;;;;;;4.00;3.27;;;4.20;66.30;;;;;;5073314;28;20451;-68
2022/04/03 04:16:35;;;;;;;4.97;2.80;;;4.20;66.40;;;;;;5073531;28;20462;-68
2022/04/03 04:19:03;;;;;;;4.20;3.00;;;4.20;66.40;;;;;;5073382;28;20452;-68
2022/04/03 04:21:30;;;;;;;3.33;2.33;;;4.20;66.70;;;;;;5073622;28;20475;-68
2022/04/03 04:23:57;;;;;;;4.00;2.60;;;4.10;66.50;;;;;;5073573;28;20454;-68
2022/04/03 04:26:23;;;;;;;6.00;3.23;;;4.10;66.50;;;;;;5073494;28;20470;-67
2022/04/03 04:28:51;;;;;;;3.03;2.70;;;4.10;66.50;;;;;;5073117;28;20447;-68
2022/04/03 04:31:18;;;;;;;3.30;2.60;;;4.10;66.40;;;;;;5073116;28;21044;-67
2022/04/03 04:33:45;;;;;;;5.33;2.80;;;4.10;66.10;;;;;;5074011;28;20439;-67
2022/04/03 04:36:14;;;;;;;4.57;2.87;;;4.00;66.20;;;;;;5073163;28;20946;-67
2022/04/03 04:38:40;;;;;;;6.63;2.50;;;4.00;66.40;;;;;;5073435;28;20451;-67
2022/04/03 04:41:07;;;;;;;3.07;2.57;;;3.90;66.20;;;;;;5073350;28;20483;-68
2022/04/03 04:43:34;;;;;;;4.80;3.40;;;3.90;66.10;;;;;;5073585;28;20459;-68
2022/04/03 04:46:00;;;;;;;3.60;2.27;;;3.90;66.40;;;;;;5073556;28;20459;-67
2022/04/03 04:48:27;;;;;;;5.17;3.97;;;3.90;66.40;;;;;;5073331;28;20447;-68
2022/04/03 04:50:54;;;;;;;3.53;3.23;;;3.90;66.40;;;;;;5073177;28;20498;-67
2022/04/03 04:53:22;;;;;;;4.60;2.50;;;3.80;67.00;;;;;;5072952;28;20801;-67
2022/04/03 04:55:49;;;;;;;3.37;3.07;;;3.80;66.30;;;;;;5072852;28;20965;-68
2022/04/03 04:58:16;;;;;;;3.40;2.43;;;3.80;66.20;;;;;;5073283;28;20446;-68
2022/04/03 05:00:42;;;;;;;3.27;2.97;;;3.80;66.30;;;;;;5073095;28;20476;-68
2022/04/03 05:03:09;;;;;;;3.60;2.60;;;3.80;66.30;;;;;;5073159;28;20455;-68
2022/04/03 05:05:36;;;;;;;3.23;3.03;;;3.70;66.00;;;;;;5073102;28;20447;-68
2022/04/03 05:08:03;;;;;;;6.43;2.80;;;3.70;66.10;;;;;;5073085;28;20453;-68
2022/04/03 05:10:33;;;;;;;5.60;2.37;;;3.70;66.20;;;;;;5072875;28;20550;-68
2022/04/03 05:13:01;;;;;;;3.50;2.77;;;3.70;66.20;;;;;;5074835;28;20494;-68
2022/04/03 05:15:29;;;;;;;7.23;3.60;;;3.70;66.30;;;;;;5077244;28;20876;-68
2022/04/03 05:17:56;;;;;;;2.30;2.07;;;3.70;66.00;;;;;;5076894;28;20450;-68
2022/04/03 05:20:23;;;;;;;3.20;2.80;;;3.70;65.90;;;;;;5076490;28;20463;-68
2022/04/03 05:22:50;;;;;;;6.63;2.10;;;3.60;66.00;;;;;;5076822;28;20448;-68
2022/04/03 05:25:17;;;;;;;3.00;2.60;;;3.70;65.90;;;;;;5076718;28;20451;-68
2022/04/03 05:27:45;;;;;;;3.43;2.90;;;3.60;66.00;;;;;;5076874;28;20453;-68
2022/04/03 05:30:13;;;;;;;3.33;2.73;;;3.60;66.20;;;;;;5076802;28;20510;-67
2022/04/03 05:32:40;;;;;;;5.00;2.80;;;3.60;66.60;;;;;;5076555;28;20480;-68
2022/04/03 05:35:09;;;;;;;4.33;2.73;;;3.50;66.60;;;;;;5076525;28;20826;-68
2022/04/03 05:37:37;;;;;;;3.37;2.80;;;3.60;66.80;;;;;;5076312;28;20459;-68
2022/04/03 05:40:06;;;;;;;3.60;2.60;;;3.60;66.80;;;;;;5076379;28;20445;-68
2022/04/03 05:42:35;;;;;;;5.57;2.80;;;3.50;66.50;;;;;;5076403;28;20475;-68
2022/04/03 05:45:04;;;;;;;5.40;2.57;;;3.50;66.40;;;;;;5076453;28;20538;-68
2022/04/03 05:47:31;;;;;;;5.53;2.97;;;3.60;66.60;;;;;;5076135;28;20827;-67
2022/04/03 05:49:57;;;;;;;4.17;2.90;;;3.50;66.20;;;;;;5076282;28;20475;-67
2022/04/03 05:52:25;;;;;;;3.53;2.90;;;3.50;66.30;;;;;;5076217;28;20478;-67
2022/04/03 05:54:52;;;;;;;3.50;2.90;;;3.50;66.40;;;;;;5076324;28;20450;-67
2022/04/03 05:57:19;;;;;;;3.73;2.60;;;3.60;66.70;;;;;;5076073;28;20434;-68
2022/04/03 05:59:45;;;;;;;3.87;2.87;;;3.60;66.60;;;;;;5062485;28;20464;-68
2022/04/03 06:02:13;;;;;;;3.40;2.23;;;3.60;66.50;;;;;;5054875;28;20891;-67
2022/04/03 06:04:40;;;;;;;2.70;2.50;;;3.60;66.30;;;;;;5055790;28;20443;-68
2022/04/03 06:07:07;;;;;;;2.50;2.00;;;3.60;66.50;;;;;;5055913;28;20796;-68
2022/04/03 06:09:34;;;;;;;4.53;2.50;;;3.60;66.50;;;;;;5055582;28;20942;-68
2022/04/03 06:12:01;;;;;;;2.40;2.20;;;3.60;66.70;;;;;;5055777;28;20470;-68
2022/04/03 06:14:28;;;;;;;4.87;2.90;;;3.60;66.60;;;;;;5055838;28;20459;-67
2022/04/03 06:16:54;;;;;;;4.33;2.70;;;3.60;66.90;;;;;;5055909;28;20456;-68
2022/04/03 06:19:22;;;;;;;3.00;2.53;;;3.60;66.80;;;;;;5055545;28;20460;-68
2022/04/03 06:21:49;;;;;;;3.90;2.27;;;3.60;66.90;;;;;;5055776;28;20496;-68
2022/04/03 06:24:16;;;;;;;4.50;2.70;;;3.70;67.20;;;;;;5054831;28;20445;-68
2022/04/03 06:26:44;;;;;;;3.77;2.57;;;3.80;67.30;;;;;;5055748;28;20452;-68
2022/04/03 06:29:10;;;;;;;3.83;2.37;;;3.80;67.30;;;;;;5055709;28;20815;-68
2022/04/03 06:31:38;;;;;;;5.13;2.93;;;3.80;66.80;;;;;;5055832;28;20500;-67
2022/04/03 06:34:05;;;;;;;2.83;2.50;;;3.80;66.50;;;;;;5056153;28;20440;-67
2022/04/03 06:36:33;;;;;;;4.27;2.73;;;3.80;66.40;;;;;;5055617;28;20452;-68
2022/04/03 06:39:00;;;;;;;3.97;2.50;;;3.80;66.30;;;;;;5055094;28;20460;-68
2022/04/03 06:41:27;;;;;;;3.30;2.40;;;3.90;67.00;;;;;;5055248;28;20471;-68
2022/04/03 06:43:54;;;;;;;3.63;2.70;;;3.90;66.90;;;;;;5055269;28;20870;-68
2022/04/03 06:46:21;;;;;;;3.13;2.77;;;3.90;66.70;;;;;;5055360;28;20460;-68
2022/04/03 06:48:47;;;;;;;3.33;2.63;;;4.00;66.80;;;;;;5055519;28;20471;-68
2022/04/03 06:51:15;;;;;;;3.27;2.97;;;4.00;66.70;;;;;;5055149;28;20489;-68
2022/04/03 06:53:43;;;;;;;4.83;2.63;;;4.10;66.30;;;;;;5055133;28;20451;-68
2022/04/03 06:56:10;;;;;;;4.40;2.53;;;4.20;65.90;;;;;;5055326;28;20426;-68
2022/04/03 06:58:37;;;;;;;5.40;2.80;;;4.20;65.00;;;;;;5054938;28;20460;-68
2022/04/03 07:01:04;;;;;;;3.70;2.50;;;4.30;65.00;;;;;;5054970;28;20491;-68
2022/04/03 07:03:31;;;;;;;2.57;2.37;;;4.30;65.20;;;;;;5055109;28;20475;-68
2022/04/03 07:05:59;;;;;;;2.73;2.53;;;4.40;65.20;;;;;;5054916;28;20484;-68
2022/04/03 07:08:25;;;;;;;3.63;2.47;;;4.50;65.40;;;;;;5054711;28;20459;-68
2022/04/03 07:10:53;;;;;;;4.07;2.80;;;4.50;64.10;;;;;;5054803;28;20488;-68
2022/04/03 07:13:20;;;;;;;14.93;3.07;;;4.60;64.20;;;;;;5054610;28;20452;-67
2022/04/03 07:15:48;;;;;;;3.03;2.63;;;4.70;64.30;;;;;;5054473;28;20952;-68
2022/04/03 07:18:16;;;;;;;3.10;2.60;;;4.80;62.50;;;;;;5054505;28;20855;-68
2022/04/03 07:20:43;;;;;;;3.07;2.40;;;4.90;62.00;;;;;;5054675;28;20501;-68
2022/04/03 07:23:09;;;;;;;10.43;2.50;;;4.90;61.70;;;;;;5054549;28;20461;-68
2022/04/03 07:25:36;;;;;;;2.80;2.50;;;5.00;61.90;;;;;;5054606;28;20867;-68
2022/04/03 07:28:05;;;;;;;5.50;2.77;;;5.10;61.10;;;;;;5054387;28;20442;-68
2022/04/03 07:30:32;;;;;;;2.87;2.50;;;5.10;60.70;;;;;;5054189;28;20477;-65
2022/04/03 07:32:59;;;;;;;3.67;2.87;;;5.20;60.90;;;;;;5054414;28;20438;-67
2022/04/03 07:35:26;;;;;;;5.67;3.17;;;5.30;61.20;;;;;;5053805;28;21047;-66
2022/04/03 07:37:53;;;;;;;5.03;2.20;;;5.40;60.30;;;;;;5054081;28;20462;-67
2022/04/03 07:40:20;;;;;;;6.03;3.20;;;5.50;59.60;;;;;;5054247;28;20445;-68
2022/04/03 07:42:49;;;;;;;8.83;2.90;;;5.50;59.80;;;;;;5054358;28;20604;-68
2022/04/03 07:45:17;;;;;;;4.77;2.27;;;5.70;60.10;;;;;;5054174;28;20473;-67
2022/04/03 07:47:47;;;;;;;6.70;2.70;;;5.80;58.90;;;;;;5054109;28;20442;-67
2022/04/03 07:50:15;;;;;;;4.33;2.47;;;5.90;57.80;;;;;;5053640;28;21000;-67
2022/04/03 07:52:42;;;;;;;2.53;2.00;;;6.00;58.10;;;;;;5054106;28;20477;-68
2022/04/03 07:55:10;;;;;;;3.50;1.57;;;6.10;58.60;;;;;;5054077;28;20449;-67
2022/04/03 07:57:37;;;;;;;4.20;2.10;;;6.30;58.20;;;;;;5053976;28;20477;-67
2022/04/03 08:00:06;;;;;;;2.37;1.87;;;6.50;57.80;;;;;;5053769;28;20449;-67
2022/04/03 08:02:34;;;;;;;2.70;2.50;;;6.60;57.70;;;;;;5053530;28;20505;-67
2022/04/03 08:05:01;;;;;;;2.90;1.90;;;6.80;56.90;;;;;;5053462;28;20445;-67
2022/04/03 08:07:36;;;;;;;2.83;1.97;;;7.00;56.10;;;;;;5053700;28;20457;-68
2022/04/03 08:10:03;;;;;;;1.83;1.17;;;7.20;55.70;;;;;;5053713;28;20434;-67
2022/04/03 08:12:30;;;;;;;2.00;1.47;;;7.30;54.70;;;;;;5053597;28;20468;-68
2022/04/03 08:14:56;;;;;;;2.17;1.67;;;7.50;55.20;;;;;;5054054;28;20843;-68
2022/04/03 08:17:23;;;;;;;1.73;1.63;;;7.80;55.20;;;;;;5053695;28;20457;-68
2022/04/03 08:19:51;;;;;;;3.47;1.73;;;8.00;55.30;;;;;;5053195;28;20461;-67
2022/04/03 08:22:18;;;;;;;2.60;1.40;;;8.20;54.50;;;;;;5053969;28;20474;-67
2022/04/03 08:24:44;;;;;;;2.30;1.27;;;8.40;53.60;;;;;;5054688;28;20450;-67
2022/04/03 08:27:12;;;;;;;2.73;1.93;;;8.60;52.70;;;;;;5053493;28;20455;-67
2022/04/03 08:29:39;;;;;;;4.10;1.73;;;8.80;52.30;;;;;;5053597;28;20453;-67
2022/04/03 08:32:07;;;;;;;6.33;3.40;;;8.90;50.70;;;;;;5053328;28;20485;-67
2022/04/03 08:34:34;;;;;;;4.33;2.27;;;9.10;51.50;;;;;;5053465;28;20456;-67
2022/04/03 08:37:02;;;;;;;2.57;2.20;;;9.30;51.50;;;;;;5053438;28;20450;-67
2022/04/03 08:39:29;;;;;;;5.40;2.07;;;9.40;50.90;;;;;;5053322;28;20445;-68
2022/04/03 08:41:57;;;;;;;2.93;2.60;;;9.60;50.60;;;;;;5052969;28;20985;-68
2022/04/03 08:44:24;;;;;;;3.80;2.67;;;9.70;49.00;;;;;;5053361;28;20486;-68
2022/04/03 08:46:51;;;;;;;2.43;2.10;;;9.70;49.60;;;;;;5052883;28;20476;-68
2022/04/03 08:49:19;;;;;;;2.50;2.30;;;9.90;49.80;;;;;;5053305;28;20797;-67
2022/04/03 08:51:47;;;;;;;4.20;2.40;;;10.10;48.00;;;;;;5051986;28;20585;-68
2022/04/03 08:54:17;;;;;;;4.13;3.00;;;10.20;47.40;;;;;;5053133;28;20453;-69
2022/04/03 08:56:44;;;;;;;6.00;3.57;;;10.30;47.00;;;;;;5053193;28;20449;-68
2022/04/03 08:59:12;;;;;;;3.50;2.80;;;10.40;46.60;;;;;;5053871;28;20464;-68
2022/04/03 09:01:38;;;;;;;4.17;3.70;;;10.50;46.80;;;;;;5053815;28;20564;-68
2022/04/03 09:04:06;;;;;;;3.93;2.40;;;10.60;44.90;;;;;;5053204;28;20457;-68
2022/04/03 09:06:32;;;;;;;1.90;1.70;;;10.50;42.20;;;;;;5053080;28;20449;-68
2022/04/03 09:08:59;;;;;;;3.23;2.93;;;10.50;43.10;;;;;;5053111;28;20454;-68
2022/04/03 09:11:30;;;;;;;8.03;4.60;;;10.50;43.60;;;;;;5053494;28;20481;-68
2022/04/03 09:13:57;;;;;;;6.40;5.00;;;10.40;42.60;;;;;;5053000;28;20429;-68
2022/04/03 09:16:39;;;;;;;5.03;3.03;;;10.50;43.90;;;;;;5052865;28;20492;-68
2022/04/03 09:19:06;;;;;;;3.93;3.23;;;10.70;46.00;;;;;;5052735;28;20936;-68
2022/04/03 09:21:34;;;;;;;12.40;8.60;;;10.90;42.60;;;;;;5052326;28;20470;-68
2022/04/03 09:24:04;;;;;;;9.33;7.47;;;11.10;41.40;;;;;;5052424;28;20449;-68
2022/04/03 09:26:34;;;;;;;9.03;5.20;;;11.40;42.20;;;;;;5052959;28;20457;-68
2022/04/03 09:29:12;;;;;;;8.90;5.83;;;11.90;40.00;;;;;;5052519;28;20457;-68
2022/04/03 09:31:40;;;;;;;2.77;2.50;;;12.20;38.80;;;;;;5052371;28;21004;-68
2022/04/03 09:34:10;;;;;;;9.67;7.67;;;12.10;36.60;;;;;;5052433;28;20948;-68
2022/04/03 09:36:38;;;;;;;8.27;6.57;;;12.10;38.00;;;;;;5051824;28;20434;-68
2022/04/03 09:39:08;;;;;;;5.83;2.67;;;12.30;39.10;;;;;;5052995;28;20452;-68
2022/04/03 09:41:55;;;;;;;5.10;3.50;;;12.30;38.70;;;;;;5052646;28;20830;-68
2022/04/03 09:44:26;;;;;;;5.50;3.97;;;12.40;39.40;;;;;;5052717;28;20433;-68
2022/04/03 09:47:17;;;;;;;10.70;8.17;;;12.50;39.20;;;;;;5052728;28;20476;-68
2022/04/03 09:49:45;;;;;;;6.87;5.50;;;12.60;39.00;;;;;;5052716;28;20426;-68
2022/04/03 09:52:15;;;;;;;6.83;5.80;;;12.50;38.40;;;;;;5052309;28;21023;-68
2022/04/03 09:54:48;;;;;;;4.67;3.20;;;12.40;38.00;;;;;;5053734;28;20434;-68
2022/04/03 09:57:23;;;;;;;3.77;3.37;;;12.30;37.80;;;;;;5052449;28;20457;-69
2022/04/03 09:59:55;;;;;;;3.77;2.70;;;12.30;37.40;;;;;;5054347;28;20847;-68
2022/04/03 10:02:24;;;;;;;6.33;3.97;;;12.30;37.10;;;;;;5056448;28;20489;-68
2022/04/03 10:04:52;;;;;;;8.07;5.97;;;12.70;38.70;;;;;;5057032;28;20492;-68
2022/04/03 10:07:20;;;;;;;4.07;3.63;;;13.20;39.20;;;;;;5055614;28;20437;-68
2022/04/03 10:09:49;;;;;;;8.40;7.60;;;13.50;37.00;;;;;;5055575;28;20453;-69
2022/04/03 10:12:18;;;;;;;6.60;6.10;;;13.70;37.10;;;;;;5055793;28;20492;-68
2022/04/03 10:14:46;;;;;;;4.90;4.50;;;13.80;36.50;;;;;;5055937;28;20988;-68
2022/04/03 10:17:15;;;;;;;3.17;2.97;;;13.70;37.30;;;;;;5055579;28;20975;-68
2022/04/03 10:19:44;;;;;;;5.43;3.00;;;13.60;37.10;;;;;;5055631;28;20461;-68
2022/04/03 10:22:14;;;;;;;3.10;2.90;;;13.40;36.50;;;;;;5049637;28;20531;-68
2022/04/03 10:24:47;;;;;;;3.60;3.30;;;13.30;37.30;;;;;;5055982;28;20449;-68
2022/04/03 10:27:19;;;;;;;2.70;2.50;;;13.10;36.50;;;;;;5056795;28;20444;-68
2022/04/03 10:29:49;;;;;;;3.47;2.40;;;12.90;36.80;;;;;;5055850;28;20468;-68
2022/04/03 10:32:25;;;;;;;5.00;2.60;;;12.80;36.10;;;;;;5055632;28;20489;-68
2022/04/03 10:34:55;;;;;;;4.20;2.60;;;12.90;37.30;;;;;;5055493;28;20462;-68
2022/04/03 10:37:27;;;;;;;2.43;1.90;;;13.10;36.50;;;;;;5055311;28;20436;-68
2022/04/03 10:39:58;;;;;;;3.07;2.13;;;12.90;35.80;;;;;;5055234;28;20434;-68
2022/04/03 10:42:26;;;;;;;3.50;2.30;;;12.90;37.60;;;;;;5055416;28;20556;-68
2022/04/03 10:45:29;;;;;;;2.77;2.13;;;12.80;37.00;;;;;;5055564;28;20527;-66
2022/04/03 10:48:26;;;;;;;7.50;2.37;;;12.80;38.20;;;;;;5055267;28;20449;-67
2022/04/03 10:51:08;;;;;;;4.10;2.50;;;12.70;37.10;;;;;;5053821;28;20473;-68
2022/04/03 10:53:39;;;;;;;3.60;2.13;;;12.90;37.70;;;;;;5054804;28;20445;-66
2022/04/03 10:56:13;;;;;;;3.00;2.20;;;13.60;36.90;;;;;;5055235;28;20436;-66
2022/04/03 10:58:45;;;;;;;2.40;2.03;;;14.50;36.10;;;;;;5053718;28;20481;-67
2022/04/03 11:01:24;;;;;;;6.43;1.97;;;15.50;33.70;;;;;;5054973;28;20488;-68
2022/04/03 11:04:03;;;;;;;4.07;2.03;;;16.60;31.70;;;;;;5055135;28;20461;-68
2022/04/03 11:06:37;;;;;;;2.70;1.90;;;17.40;30.90;;;;;;5055259;28;20426;-68
2022/04/03 11:09:12;;;;;;;3.47;2.03;;;18.00;29.60;;;;;;5054613;28;20454;-68
2022/04/03 11:11:51;;;;;;;3.37;1.80;;;18.60;29.40;;;;;;5053880;28;20489;-68
2022/04/03 11:14:52;;;;;;;3.17;2.00;;;19.20;28.10;;;;;;5054197;28;20870;-68
2022/04/03 11:17:41;;;;;;;2.30;1.47;;;19.90;26.80;;;;;;5054648;28;20460;-68
2022/04/03 11:20:09;;;;;;;1.50;1.40;;;20.40;26.20;;;;;;5054128;28;20492;-68
2022/04/03 11:22:37;;;;;;;1.60;1.50;;;20.60;25.70;;;;;;5052410;28;20977;-69
2022/04/03 11:25:05;;;;;;;2.50;1.50;;;21.30;25.90;;;;;;5054752;28;20470;-68
2022/04/03 11:27:31;;;;;;;3.10;2.80;;;21.80;25.10;;;;;;5054046;28;20449;-67
2022/04/03 11:29:59;;;;;;;16.23;14.53;;;22.30;25.30;;;;;;5054483;28;20464;-68
2022/04/03 11:32:34;;;;;;;18.30;16.50;;;22.00;24.20;;;;;;5054039;28;20485;-68
2022/04/03 11:35:03;;;;;;;2.90;2.70;;;22.00;25.90;;;;;;5054320;28;20809;-69
2022/04/03 11:37:32;;;;;;;2.07;1.60;;;22.70;27.00;;;;;;5054035;28;20940;-69
2022/04/03 11:40:00;;;;;;;2.40;1.50;;;23.70;24.60;;;;;;5053833;28;20457;-67
2022/04/03 11:42:27;;;;;;;2.13;1.63;;;24.60;24.00;;;;;;5053706;28;20480;-67
2022/04/03 11:44:55;;;;;;;2.10;2.00;;;25.60;24.60;;;;;;5054181;28;20453;-67
2022/04/03 11:47:25;;;;;;;1.50;1.37;;;26.40;21.60;;;;;;5053882;28;20446;-67
2022/04/03 11:50:11;;;;;;;2.10;1.90;;;26.40;20.10;;;;;;5052776;28;20450;-67
2022/04/03 11:52:40;;;;;;;2.77;2.13;;;26.60;21.30;;;;;;5053819;28;20569;-67
2022/04/03 11:55:17;;;;;;;1.90;1.70;;;26.60;20.50;;;;;;5053979;28;20441;-67
2022/04/03 11:57:45;;;;;;;2.13;1.50;;;26.10;21.10;;;;;;5054014;28;20442;-67
2022/04/03 12:00:23;;;;;;;1.70;1.60;;;25.20;22.10;;;;;;5053634;28;20952;-67
2022/04/03 12:02:59;;;;;;;3.37;1.50;;;24.30;22.80;;;;;;5053648;28;20445;-67
2022/04/03 12:05:27;;;;;;;1.43;1.20;;;23.20;22.80;;;;;;5053588;28;20434;-68
2022/04/03 12:07:54;;;;;;;3.13;1.20;;;22.10;23.50;;;;;;5053834;28;20524;-68
2022/04/03 12:10:26;;;;;;;1.20;1.10;;;21.20;24.40;;;;;;5053577;28;20956;-69
2022/04/03 12:12:53;;;;;;;1.50;1.10;;;20.50;25.30;;;;;;5053366;28;20996;-69
2022/04/03 12:15:27;;;;;;;3.07;1.37;;;20.50;27.30;;;;;;5053714;28;20446;-66
2022/04/03 12:17:56;;;;;;;1.83;1.27;;;21.60;27.00;;;;;;5053659;28;20430;-67
2022/04/03 12:20:22;;;;;;;2.03;1.30;;;22.90;23.20;;;;;;5053155;28;20882;-67
2022/04/03 12:22:53;;;;;;;1.83;1.30;;;24.10;23.60;;;;;;5051604;28;20445;-67
2022/04/03 12:25:20;;;;;;;1.77;1.50;;;24.80;21.00;;;;;;5053659;28;20430;-68
2022/04/03 12:27:51;;;;;;;3.87;1.60;;;24.70;22.50;;;;;;5053718;28;20464;-67
2022/04/03 12:30:20;;;;;;;3.10;1.40;;;25.10;23.50;;;;;;5053409;28;20438;-69
2022/04/03 12:32:51;;;;;;;1.07;0.93;;;26.00;23.00;;;;;;5053584;28;20571;-69
2022/04/03 12:35:23;;;;;;;1.27;1.17;;;26.50;19.90;;;;;;5052274;28;20456;-69
2022/04/03 12:37:55;;;;;;;2.40;1.40;;;26.70;19.80;;;;;;5053740;28;20507;-69
2022/04/03 12:40:23;;;;;;;2.20;1.30;;;26.90;19.60;;;;;;5053404;28;20441;-66
2022/04/03 12:42:50;;;;;;;5.10;1.53;;;26.90;18.70;;;;;;5053327;28;20494;-67
2022/04/03 12:45:19;;;;;;;1.37;0.80;;;26.40;19.10;;;;;;5053018;28;20449;-66
2022/04/03 12:47:48;;;;;;;1.73;1.17;;;26.50;20.40;;;;;;5052827;28;20454;-67
2022/04/03 12:50:26;;;;;;;2.47;1.20;;;26.20;20.50;;;;;;5052697;28;20511;-67
2022/04/03 12:53:00;;;;;;;0.70;0.70;;;26.40;20.50;;;;;;5052842;28;20485;-67
2022/04/03 12:55:49;;;;;;;3.43;1.10;;;26.80;20.80;;;;;;5052984;28;20918;-68
2022/04/03 12:58:33;;;;;;;0.90;0.90;;;27.40;19.30;;;;;;5053129;28;20441;-68
2022/04/03 13:01:09;;;;;;;1.03;0.93;;;26.80;18.60;;;;;;5053064;28;20484;-67